Time;durP1;ratioP1;P1;durP2;ratioP2;P2;SDS_P1;SDS_P2;PMS_P1;PMS_P2;Temp;Humidity;BMP_temperature;BMP_pressure;BME280_temperature;BME280_humidity;BME280_pressure;Samples;Min_cycle;Max_cycle;Signal;HPM_P1;HPM_P2
2023/11/16 00:03:30;;;;;;;50.45;29.02;;;;;;;;;;10513358;28;20750;-82
2023/11/16 00:08:35;;;;;;;47.75;27.13;;;;;;;;;;10508567;28;20502;-83
2023/11/16 00:13:39;;;;;;;44.35;27.23;;;;;;;;;;10510554;28;20406;-82
2023/11/16 00:18:42;;;;;;;44.03;26.33;;;;;;;;;;10510989;28;20400;-82
2023/11/16 00:23:44;;;;;;;47.55;26.02;;;;;;;;;;10510114;28;20941;-82
2023/11/16 00:28:50;;;;;;;46.60;26.08;;;;;;;;;;10501498;28;20907;-82
2023/11/16 00:33:52;;;;;;;39.70;25.83;;;;;;;;;;10506768;28;20402;-82
2023/11/16 00:38:56;;;;;;;40.67;23.63;;;;;;;;;;10503135;28;20909;-83
2023/11/16 00:44:02;;;;;;;37.78;22.85;;;;;;;;;;10509629;28;20432;-83
2023/11/16 00:49:04;;;;;;;37.63;23.38;;;;;;;;;;10501226;28;20458;-83
2023/11/16 00:54:07;;;;;;;38.03;23.25;;;;;;;;;;10502135;28;20425;-83
2023/11/16 00:59:11;;;;;;;32.70;19.50;;;;;;;;;;10506053;28;20465;-82
2023/11/16 01:04:14;;;;;;;30.73;18.23;;;;;;;;;;10509839;28;20458;-83
2023/11/16 01:09:16;;;;;;;36.30;20.33;;;;;;;;;;10505418;28;20477;-82
2023/11/16 01:14:22;;;;;;;31.83;18.07;;;;;;;;;;10508551;28;20410;-83
2023/11/16 01:19:26;;;;;;;29.85;17.63;;;;;;;;;;10505447;28;20432;-83
2023/11/16 01:24:34;;;;;;;31.57;18.90;;;;;;;;;;10517382;28;20868;-82
2023/11/16 01:29:38;;;;;;;26.55;17.20;;;;;;;;;;10502110;28;20462;-82
2023/11/16 01:34:42;;;;;;;28.52;17.20;;;;;;;;;;10502966;28;20947;-82
2023/11/16 01:39:44;;;;;;;26.02;16.27;;;;;;;;;;10508621;28;20408;-82
2023/11/16 01:44:48;;;;;;;24.75;14.95;;;;;;;;;;10510245;28;20392;-82
2023/11/16 01:49:50;;;;;;;26.80;16.57;;;;;;;;;;10503607;28;20449;-83
2023/11/16 01:54:53;;;;;;;26.40;15.85;;;;;;;;;;10511832;28;20408;-83
2023/11/16 01:59:56;;;;;;;25.38;15.20;;;;;;;;;;10503015;28;20499;-83
2023/11/16 02:05:02;;;;;;;24.27;16.42;;;;;;;;;;10510982;28;20402;-83
2023/11/16 02:10:06;;;;;;;27.02;15.60;;;;;;;;;;10506142;28;20817;-82
2023/11/16 02:15:11;;;;;;;25.25;15.90;;;;;;;;;;10504446;28;20479;-83
2023/11/16 02:20:13;;;;;;;26.63;15.40;;;;;;;;;;10516171;28;20535;-83
2023/11/16 02:25:17;;;;;;;23.83;14.63;;;;;;;;;;10511282;28;20414;-82
2023/11/16 02:30:20;;;;;;;21.50;13.15;;;;;;;;;;10496761;28;20458;-83
2023/11/16 02:35:22;;;;;;;19.98;13.32;;;;;;;;;;10503680;28;20442;-82
2023/11/16 02:40:26;;;;;;;22.02;13.68;;;;;;;;;;10503844;28;20430;-83
2023/11/16 02:45:29;;;;;;;20.88;13.23;;;;;;;;;;10515790;28;20400;-82
2023/11/16 02:50:32;;;;;;;18.23;12.45;;;;;;;;;;10514416;28;20979;-82
2023/11/16 02:55:35;;;;;;;19.83;12.40;;;;;;;;;;10507594;28;20406;-83
2023/11/16 03:00:38;;;;;;;21.02;12.77;;;;;;;;;;10507215;28;20456;-82
2023/11/16 03:05:40;;;;;;;19.55;12.13;;;;;;;;;;10508275;28;20405;-83
2023/11/16 03:10:44;;;;;;;21.73;12.23;;;;;;;;;;10521931;28;20439;-82
2023/11/16 03:15:48;;;;;;;19.38;12.02;;;;;;;;;;10513490;28;20449;-83
2023/11/16 03:20:50;;;;;;;18.40;10.95;;;;;;;;;;10510251;28;20452;-83
2023/11/16 03:25:55;;;;;;;15.67;9.73;;;;;;;;;;10519213;28;20410;-82
2023/11/16 03:30:58;;;;;;;14.80;8.93;;;;;;;;;;10517464;28;20429;-82
2023/11/16 03:36:01;;;;;;;14.75;9.32;;;;;;;;;;10514459;28;20426;-82
2023/11/16 03:41:05;;;;;;;14.38;8.70;;;;;;;;;;10508793;28;20473;-83
2023/11/16 03:46:08;;;;;;;16.98;8.73;;;;;;;;;;10509788;28;20872;-83
2023/11/16 03:51:13;;;;;;;14.27;9.05;;;;;;;;;;10507379;28;20420;-83
2023/11/16 03:56:17;;;;;;;12.47;8.23;;;;;;;;;;10504986;28;20450;-82
2023/11/16 04:01:20;;;;;;;12.52;8.30;;;;;;;;;;10515889;28;20400;-83
2023/11/16 04:06:23;;;;;;;12.40;7.72;;;;;;;;;;10514441;28;20903;-82
2023/11/16 04:11:27;;;;;;;12.43;8.10;;;;;;;;;;10508425;28;20519;-82
2023/11/16 04:16:30;;;;;;;12.10;7.88;;;;;;;;;;10518837;28;20388;-82
2023/11/16 04:21:36;;;;;;;12.73;7.75;;;;;;;;;;10507023;28;20406;-82
2023/11/16 04:26:40;;;;;;;11.60;6.97;;;;;;;;;;10508781;28;20406;-82
2023/11/16 04:31:44;;;;;;;12.50;7.37;;;;;;;;;;10512723;28;20454;-82
2023/11/16 04:36:52;;;;;;;10.45;6.80;;;;;;;;;;10507481;28;20751;-82
2023/11/16 04:41:56;;;;;;;8.80;5.70;;;;;;;;;;10511872;28;20422;-82
2023/11/16 04:46:59;;;;;;;7.60;5.47;;;;;;;;;;10517153;28;20440;-80
2023/11/16 04:52:01;;;;;;;6.97;4.88;;;;;;;;;;10504020;28;20424;-82
2023/11/16 04:57:07;;;;;;;7.63;5.25;;;;;;;;;;10502792;28;20882;-82
2023/11/16 05:02:09;;;;;;;9.83;6.10;;;;;;;;;;10506113;28;20398;-81
2023/11/16 05:07:12;;;;;;;10.23;5.65;;;;;;;;;;10505853;28;20471;-82
2023/11/16 05:12:16;;;;;;;8.95;5.80;;;;;;;;;;10518737;28;20557;-82
2023/11/16 05:17:19;;;;;;;10.25;6.22;;;;;;;;;;10507334;28;20992;-82
2023/11/16 05:22:21;;;;;;;8.60;5.88;;;;;;;;;;10516013;28;20400;-82
2023/11/16 05:27:27;;;;;;;7.70;5.20;;;;;;;;;;10509268;28;20469;-82
2023/11/16 05:32:29;;;;;;;8.25;5.45;;;;;;;;;;10501128;28;20613;-82
2023/11/16 05:37:31;;;;;;;8.65;5.40;;;;;;;;;;10485912;28;20404;-82
2023/11/16 05:42:35;;;;;;;7.43;4.87;;;;;;;;;;10503934;28;20452;-82
2023/11/16 05:47:38;;;;;;;6.77;4.50;;;;;;;;;;10507814;28;20557;-82
2023/11/16 05:52:42;;;;;;;6.00;4.10;;;;;;;;;;10509011;28;20518;-81
2023/11/16 05:57:46;;;;;;;7.80;4.47;;;;;;;;;;10509076;28;20569;-82
2023/11/16 06:02:49;;;;;;;7.72;5.60;;;;;;;;;;10516983;28;20504;-81
2023/11/16 06:07:51;;;;;;;6.90;4.93;;;;;;;;;;10512550;28;20978;-81
2023/11/16 06:12:57;;;;;;;6.20;4.43;;;;;;;;;;10497195;28;20416;-82
2023/11/16 06:18:00;;;;;;;8.23;5.10;;;;;;;;;;10505218;28;20432;-82
2023/11/16 06:23:03;;;;;;;9.52;5.43;;;;;;;;;;10510114;28;20481;-83
2023/11/16 06:28:07;;;;;;;8.87;5.10;;;;;;;;;;10511233;28;20474;-84
2023/11/16 06:33:09;;;;;;;8.65;5.75;;;;;;;;;;10518503;28;20461;-84
2023/11/16 06:38:13;;;;;;;7.70;5.65;;;;;;;;;;10514773;28;20432;-83
2023/11/16 06:43:17;;;;;;;8.63;5.30;;;;;;;;;;10510161;28;20489;-83
2023/11/16 06:48:19;;;;;;;9.52;5.97;;;;;;;;;;10511397;28;20400;-84
2023/11/16 06:53:21;;;;;;;10.73;6.00;;;;;;;;;;10526574;28;20845;-84
2023/11/16 06:58:25;;;;;;;7.77;5.57;;;;;;;;;;10508664;28;20411;-85
2023/11/16 07:03:37;;;;;;;10.88;5.80;;;;;;;;;;10509415;28;21002;-82
2023/11/16 07:08:39;;;;;;;8.63;6.10;;;;;;;;;;10502180;28;20544;-84
2023/11/16 07:13:43;;;;;;;8.60;6.15;;;;;;;;;;10511514;28;20512;-83
2023/11/16 07:18:47;;;;;;;8.53;6.03;;;;;;;;;;10515533;28;20503;-82
2023/11/16 07:23:49;;;;;;;12.07;6.22;;;;;;;;;;10502368;28;20566;-81
2023/11/16 07:28:57;;;;;;;12.40;6.18;;;;;;;;;;10508441;28;20472;-83
2023/11/16 07:34:00;;;;;;;11.20;5.78;;;;;;;;;;10514027;28;20506;-82
2023/11/16 07:39:03;;;;;;;10.75;5.93;;;;;;;;;;10529298;28;21139;-82
2023/11/16 07:44:08;;;;;;;9.23;5.93;;;;;;;;;;10503501;28;20548;-82
2023/11/16 07:49:11;;;;;;;10.33;6.60;;;;;;;;;;10512563;28;20563;-82
2023/11/16 07:54:15;;;;;;;12.23;7.07;;;;;;;;;;10514176;28;20513;-82
2023/11/16 07:59:19;;;;;;;10.43;6.30;;;;;;;;;;10509303;28;20436;-82
2023/11/16 08:04:23;;;;;;;8.80;6.13;;;;;;;;;;10513832;28;20468;-82
2023/11/16 08:09:26;;;;;;;10.52;6.15;;;;;;;;;;10515766;28;20515;-82
2023/11/16 08:14:34;;;;;;;7.77;5.30;;;;;;;;;;10517147;28;20585;-82
2023/11/16 08:19:37;;;;;;;10.15;5.13;;;;;;;;;;10511988;28;20809;-82
2023/11/16 08:24:39;;;;;;;7.43;5.07;;;;;;;;;;10516881;28;20446;-82
2023/11/16 08:29:43;;;;;;;8.73;5.53;;;;;;;;;;10516525;28;20989;-83
2023/11/16 08:34:46;;;;;;;9.13;4.80;;;;;;;;;;10498052;28;20438;-82
2023/11/16 08:39:48;;;;;;;7.55;4.85;;;;;;;;;;10505272;28;20476;-82
2023/11/16 08:44:52;;;;;;;7.60;5.00;;;;;;;;;;10503972;28;20489;-82
2023/11/16 08:49:54;;;;;;;6.57;4.30;;;;;;;;;;10504585;28;21010;-81
2023/11/16 08:54:57;;;;;;;6.93;4.50;;;;;;;;;;10510618;28;20476;-82
2023/11/16 09:00:25;;;;;;;8.60;3.70;;;;;;;;;;10511436;28;20394;-82
2023/11/16 09:05:24;;;;;;;7.70;4.20;;;;;;;;;;10509580;28;20491;-82
2023/11/16 09:10:27;;;;;;;8.98;4.05;;;;;;;;;;10502601;28;20447;-81
2023/11/16 09:15:31;;;;;;;8.47;4.43;;;;;;;;;;10524708;22;20961;-88
2023/11/16 09:20:35;;;;;;;5.13;3.63;;;;;;;;;;10512728;28;20406;-89
2023/11/16 09:25:38;;;;;;;5.90;4.13;;;;;;;;;;10540125;28;20404;-89
2023/11/16 09:30:43;;;;;;;4.50;2.60;;;;;;;;;;10546162;28;20420;-89
2023/11/16 09:35:49;;;;;;;3.70;2.40;;;;;;;;;;10521079;28;20396;-90
2023/11/16 09:40:52;;;;;;;1.88;1.13;;;;;;;;;;10522570;28;20464;-89
2023/11/16 09:45:56;;;;;;;1.90;0.80;;;;;;;;;;10501205;28;20402;-90
2023/11/16 09:51:01;;;;;;;1.45;1.02;;;;;;;;;;10511631;28;20428;-88
2023/11/16 09:56:04;;;;;;;2.40;1.10;;;;;;;;;;10512155;28;20950;-89
2023/11/16 10:01:11;;;;;;;1.67;1.07;;;;;;;;;;10514194;28;20452;-89
2023/11/16 10:06:19;;;;;;;2.10;1.10;;;;;;;;;;10506076;28;20412;-87
2023/11/16 10:11:24;;;;;;;1.10;1.00;;;;;;;;;;10514497;28;20505;-87
2023/11/16 10:16:28;;;;;;;1.33;0.90;;;;;;;;;;10507194;28;20509;-88
2023/11/16 10:21:30;;;;;;;2.03;1.33;;;;;;;;;;10503713;28;20409;-87
2023/11/16 10:26:34;;;;;;;1.60;1.00;;;;;;;;;;10503334;28;20468;-87
2023/11/16 10:31:46;;;;;;;2.90;1.30;;;;;;;;;;10505915;28;20475;-88
2023/11/16 10:36:49;;;;;;;1.85;1.20;;;;;;;;;;10533766;28;20523;-87
2023/11/16 10:41:52;;;;;;;4.55;2.67;;;;;;;;;;10506902;28;20408;-88
2023/11/16 10:46:59;;;;;;;4.38;2.10;;;;;;;;;;10512936;28;20453;-87
2023/11/16 10:52:03;;;;;;;2.30;1.63;;;;;;;;;;10502247;28;20462;-87
2023/11/16 10:57:06;;;;;;;2.33;1.90;;;;;;;;;;10507069;28;20893;-88
2023/11/16 11:02:11;;;;;;;6.78;2.75;;;;;;;;;;10509630;28;20735;-88
2023/11/16 11:07:13;;;;;;;9.77;4.40;;;;;;;;;;10510528;28;20889;-87
2023/11/16 11:12:16;;;;;;;4.43;2.80;;;;;;;;;;10513202;28;20450;-87
2023/11/16 11:17:20;;;;;;;2.78;1.90;;;;;;;;;;10510200;28;20404;-87
2023/11/16 11:22:27;;;;;;;3.40;1.60;;;;;;;;;;10518778;28;20462;-87
2023/11/16 11:27:29;;;;;;;2.60;1.77;;;;;;;;;;10509248;28;20495;-87
2023/11/16 11:32:39;;;;;;;2.58;1.50;;;;;;;;;;10519387;28;20420;-88
2023/11/16 11:37:42;;;;;;;3.65;1.83;;;;;;;;;;10522940;28;20398;-87
2023/11/16 11:42:50;;;;;;;2.60;1.80;;;;;;;;;;10517771;28;20750;-86
2023/11/16 11:47:55;;;;;;;2.83;1.92;;;;;;;;;;10513780;28;20398;-88
2023/11/16 11:53:01;;;;;;;2.33;1.88;;;;;;;;;;10506616;28;20797;-88
2023/11/16 11:58:04;;;;;;;2.78;1.90;;;;;;;;;;10510643;28;20388;-88
2023/11/16 12:03:11;;;;;;;2.90;1.65;;;;;;;;;;10510059;28;20414;-87
2023/11/16 12:08:13;;;;;;;2.40;1.90;;;;;;;;;;10509410;28;20949;-87
2023/11/16 12:13:17;;;;;;;3.40;2.13;;;;;;;;;;10508398;28;20426;-88
2023/11/16 12:18:22;;;;;;;6.15;3.53;;;;;;;;;;10512940;28;20402;-87
2023/11/16 12:23:28;;;;;;;3.15;2.25;;;;;;;;;;10516561;28;20404;-88
2023/11/16 12:28:33;;;;;;;3.30;2.10;;;;;;;;;;10517023;28;20397;-89
2023/11/16 12:33:37;;;;;;;2.83;2.30;;;;;;;;;;10512671;28;20426;-89
2023/11/16 12:38:39;;;;;;;3.88;2.42;;;;;;;;;;10522785;28;20415;-88
2023/11/16 12:43:42;;;;;;;2.97;2.13;;;;;;;;;;10512741;28;20412;-88
2023/11/16 12:48:46;;;;;;;4.05;2.30;;;;;;;;;;10525191;28;20483;-90
2023/11/16 12:53:48;;;;;;;4.55;2.10;;;;;;;;;;10533938;28;20420;-90
2023/11/16 12:58:53;;;;;;;3.03;2.10;;;;;;;;;;10509866;28;20417;-89
2023/11/16 13:03:57;;;;;;;3.60;2.00;;;;;;;;;;10508605;28;20401;-87
2023/11/16 13:08:59;;;;;;;3.15;1.95;;;;;;;;;;10501180;28;20422;-87
2023/11/16 13:14:01;;;;;;;3.20;2.10;;;;;;;;;;10501332;28;20420;-88
2023/11/16 13:19:06;;;;;;;5.17;2.30;;;;;;;;;;10515910;28;20749;-88
2023/11/16 13:24:09;;;;;;;3.67;2.13;;;;;;;;;;10517472;28;20953;-87
2023/11/16 13:29:11;;;;;;;3.78;2.25;;;;;;;;;;10488198;28;20901;-88
2023/11/16 13:34:16;;;;;;;3.45;2.05;;;;;;;;;;10511669;28;20414;-88
2023/11/16 13:39:19;;;;;;;2.95;2.20;;;;;;;;;;10512759;28;20762;-88
2023/11/16 13:44:22;;;;;;;4.07;2.50;;;;;;;;;;10521336;28;20402;-87
2023/11/16 13:49:28;;;;;;;2.97;2.03;;;;;;;;;;10507303;28;20531;-89
2023/11/16 13:54:31;;;;;;;4.75;2.50;;;;;;;;;;10517066;28;20424;-88
2023/11/16 13:59:33;;;;;;;5.07;2.50;;;;;;;;;;10515409;28;20431;-88
2023/11/16 14:04:39;;;;;;;3.50;2.87;;;;;;;;;;10512173;28;20741;-88
2023/11/16 14:09:44;;;;;;;5.35;3.65;;;;;;;;;;10506389;28;20489;-88
2023/11/16 14:14:47;;;;;;;7.13;4.20;;;;;;;;;;10504667;28;20428;-87
2023/11/16 14:19:50;;;;;;;6.73;4.40;;;;;;;;;;10507175;28;20402;-88
2023/11/16 14:24:53;;;;;;;5.63;4.28;;;;;;;;;;10510410;28;20417;-88
2023/11/16 14:29:57;;;;;;;5.63;3.65;;;;;;;;;;10507008;28;20778;-87
2023/11/16 14:35:03;;;;;;;7.05;3.65;;;;;;;;;;10502324;28;20484;-87
2023/11/16 14:40:07;;;;;;;6.95;4.53;;;;;;;;;;10514014;28;20405;-87
2023/11/16 14:45:11;;;;;;;11.95;6.65;;;;;;;;;;10538251;28;20400;-88
2023/11/16 14:50:17;;;;;;;10.70;7.83;;;;;;;;;;10515170;28;20402;-87
2023/11/16 14:55:20;;;;;;;10.85;7.80;;;;;;;;;;10510436;28;20490;-88
2023/11/16 15:00:24;;;;;;;10.10;5.70;;;;;;;;;;10510428;28;20404;-87
2023/11/16 15:05:28;;;;;;;9.27;5.25;;;;;;;;;;10512728;28;20406;-88
2023/11/16 15:10:30;;;;;;;9.48;5.05;;;;;;;;;;10514905;28;20894;-87
2023/11/16 15:15:33;;;;;;;8.45;5.55;;;;;;;;;;10504336;28;20470;-87
2023/11/16 15:20:37;;;;;;;8.10;5.57;;;;;;;;;;10506221;28;20406;-87
2023/11/16 15:25:39;;;;;;;15.30;7.13;;;;;;;;;;10500962;28;20447;-88
2023/11/16 15:30:42;;;;;;;18.83;8.48;;;;;;;;;;10501703;28;20409;-86
2023/11/16 15:35:46;;;;;;;18.98;9.73;;;;;;;;;;10502577;28;20451;-87
2023/11/16 15:40:48;;;;;;;19.03;8.77;;;;;;;;;;10502149;28;20436;-86
2023/11/16 15:45:51;;;;;;;14.87;7.53;;;;;;;;;;10527384;28;20402;-87
2023/11/16 15:50:56;;;;;;;20.70;8.23;;;;;;;;;;10503732;28;20406;-87
2023/11/16 15:55:59;;;;;;;15.48;8.30;;;;;;;;;;10507398;28;20519;-86
2023/11/16 16:01:02;;;;;;;37.75;15.88;;;;;;;;;;10498467;28;20440;-86
2023/11/16 16:06:06;;;;;;;27.13;12.27;;;;;;;;;;10501820;28;20435;-86
2023/11/16 16:11:09;;;;;;;22.15;11.48;;;;;;;;;;10496994;28;20434;-86
2023/11/16 16:16:13;;;;;;;20.38;11.50;;;;;;;;;;10497371;28;20526;-88
2023/11/16 16:21:17;;;;;;;23.30;11.35;;;;;;;;;;10501511;28;20448;-86
2023/11/16 16:26:19;;;;;;;32.65;13.00;;;;;;;;;;10504806;28;20489;-86
2023/11/16 16:31:23;;;;;;;22.40;12.52;;;;;;;;;;10508436;28;20511;-87
2023/11/16 16:36:26;;;;;;;27.13;12.75;;;;;;;;;;10502660;28;20526;-87
2023/11/16 16:41:29;;;;;;;32.83;15.82;;;;;;;;;;10514244;28;20420;-87
2023/11/16 16:46:31;;;;;;;37.88;19.85;;;;;;;;;;10513635;28;20409;-87
2023/11/16 16:51:35;;;;;;;39.65;20.13;;;;;;;;;;10489131;28;21176;-87
2023/11/16 16:56:37;;;;;;;37.67;20.13;;;;;;;;;;10490385;28;20457;-87
2023/11/16 17:01:40;;;;;;;25.90;16.83;;;;;;;;;;10489970;28;20520;-87
2023/11/16 17:06:43;;;;;;;25.33;15.63;;;;;;;;;;10494257;28;20450;-86
2023/11/16 17:11:46;;;;;;;24.63;15.02;;;;;;;;;;10494581;28;20438;-87
2023/11/16 17:16:48;;;;;;;35.03;20.25;;;;;;;;;;10500781;28;20438;-87
2023/11/16 17:21:52;;;;;;;44.53;24.92;;;;;;;;;;10487721;28;20621;-86
2023/11/16 17:26:54;;;;;;;45.55;25.45;;;;;;;;;;10501029;28;20475;-86
2023/11/16 17:31:57;;;;;;;46.00;26.90;;;;;;;;;;10494133;28;20518;-86
2023/11/16 17:37:01;;;;;;;44.00;23.98;;;;;;;;;;10500797;28;20405;-87
2023/11/16 17:42:05;;;;;;;34.67;19.20;;;;;;;;;;10512399;28;20687;-87
2023/11/16 17:47:07;;;;;;;26.40;16.53;;;;;;;;;;10498810;28;20416;-87
2023/11/16 17:52:11;;;;;;;31.23;20.52;;;;;;;;;;10491044;28;20813;-87
2023/11/16 17:57:15;;;;;;;32.28;21.90;;;;;;;;;;10485429;28;20453;-88
2023/11/16 18:02:18;;;;;;;29.00;16.53;;;;;;;;;;10498232;28;20516;-86
2023/11/16 18:07:23;;;;;;;26.23;14.23;;;;;;;;;;10488997;28;20437;-86
2023/11/16 18:12:25;;;;;;;21.13;13.32;;;;;;;;;;10504666;28;20451;-87
2023/11/16 18:17:28;;;;;;;25.35;14.55;;;;;;;;;;10502803;28;20467;-87
2023/11/16 18:22:33;;;;;;;24.53;15.03;;;;;;;;;;10506279;28;20946;-88
2023/11/16 18:27:35;;;;;;;22.10;14.93;;;;;;;;;;10507236;28;21095;-87
2023/11/16 18:32:38;;;;;;;22.08;15.52;;;;;;;;;;10507070;28;20467;-87
2023/11/16 18:37:42;;;;;;;53.07;36.20;;;;;;;;;;10513577;28;20445;-87
2023/11/16 18:42:48;;;;;;;70.10;46.03;;;;;;;;;;10522364;28;20421;-88
2023/11/16 18:47:50;;;;;;;112.07;72.70;;;;;;;;;;10504022;28;20497;-89
2023/11/16 18:52:54;;;;;;;56.03;35.75;;;;;;;;;;10505927;28;20416;-90
2023/11/16 18:58:01;;;;;;;43.25;26.23;;;;;;;;;;10512576;28;20416;-89
2023/11/16 19:03:12;;;;;;;33.38;21.98;;;;;;;;;;10516187;28;20408;-88
2023/11/16 19:08:19;;;;;;;30.85;18.73;;;;;;;;;;10519710;28;20412;-90
2023/11/16 19:13:21;;;;;;;32.63;17.17;;;;;;;;;;10528256;28;20474;-91
2023/11/16 19:18:24;;;;;;;27.52;16.40;;;;;;;;;;10514008;28;20420;-91
2023/11/16 19:23:29;;;;;;;32.08;18.05;;;;;;;;;;10515049;28;20398;-90
2023/11/16 19:28:31;;;;;;;30.88;17.50;;;;;;;;;;10510397;28;20398;-82
2023/11/16 19:33:33;;;;;;;27.85;16.67;;;;;;;;;;10527005;28;20427;-89
2023/11/16 19:38:37;;;;;;;29.70;16.90;;;;;;;;;;10528447;28;20420;-90
2023/11/16 19:43:42;;;;;;;30.37;16.20;;;;;;;;;;10529232;28;20512;-90
2023/11/16 19:48:44;;;;;;;29.73;17.50;;;;;;;;;;10516048;28;20406;-89
2023/11/16 19:53:48;;;;;;;27.88;18.00;;;;;;;;;;10508218;28;20479;-83
2023/11/16 19:58:50;;;;;;;37.97;18.40;;;;;;;;;;10509946;28;20472;-91
2023/11/16 20:03:54;;;;;;;30.77;19.30;;;;;;;;;;10513289;28;20425;-91
2023/11/16 20:08:59;;;;;;;36.53;19.63;;;;;;;;;;10504428;28;20500;-88
2023/11/16 20:14:03;;;;;;;35.97;21.88;;;;;;;;;;10503493;28;20989;-88
2023/11/16 20:19:07;;;;;;;38.73;23.50;;;;;;;;;;10510804;28;20464;-89
2023/11/16 20:24:12;;;;;;;37.25;23.20;;;;;;;;;;10503719;28;20414;-89
2023/11/16 20:29:14;;;;;;;36.70;21.40;;;;;;;;;;10504303;28;20396;-89
2023/11/16 20:34:17;;;;;;;35.50;21.08;;;;;;;;;;10512256;28;20420;-90
2023/11/16 20:39:21;;;;;;;37.80;21.67;;;;;;;;;;10527557;28;20396;-89
2023/11/16 20:44:24;;;;;;;32.20;19.40;;;;;;;;;;10505775;28;20412;-88
2023/11/16 20:49:26;;;;;;;29.07;18.93;;;;;;;;;;10509450;28;20444;-89
2023/11/16 20:54:30;;;;;;;32.97;20.77;;;;;;;;;;10498141;28;20524;-89
2023/11/16 20:59:38;;;;;;;35.88;21.08;;;;;;;;;;10506356;28;20437;-89
2023/11/16 21:04:40;;;;;;;37.65;19.90;;;;;;;;;;10505789;28;20433;-89
2023/11/16 21:09:45;;;;;;;32.97;21.15;;;;;;;;;;10509404;28;20491;-91
2023/11/16 21:14:47;;;;;;;32.50;21.17;;;;;;;;;;10514613;28;20422;-91
2023/11/16 21:19:49;;;;;;;32.00;20.58;;;;;;;;;;10516167;28;20487;-91
2023/11/16 21:24:53;;;;;;;34.65;20.98;;;;;;;;;;10531022;28;20406;-90
2023/11/16 21:29:56;;;;;;;33.58;20.38;;;;;;;;;;10535440;28;20463;-90
2023/11/16 21:34:58;;;;;;;34.20;20.48;;;;;;;;;;10520709;28;20448;-89
2023/11/16 21:40:05;;;;;;;35.47;20.93;;;;;;;;;;10520952;28;21590;-91
2023/11/16 21:45:09;;;;;;;31.60;20.53;;;;;;;;;;10512356;28;20417;-91
2023/11/16 21:50:14;;;;;;;35.50;20.73;;;;;;;;;;10507950;28;20457;-90
2023/11/16 21:55:21;;;;;;;34.87;22.10;;;;;;;;;;10513405;28;20768;-91
2023/11/16 22:00:24;;;;;;;34.72;19.98;;;;;;;;;;10505740;28;20754;-91
2023/11/16 22:05:26;;;;;;;40.67;22.23;;;;;;;;;;10502441;28;20406;-91
2023/11/16 22:10:30;;;;;;;32.73;20.40;;;;;;;;;;10512411;28;20412;-91
2023/11/16 22:15:33;;;;;;;32.17;20.10;;;;;;;;;;10508356;28;20450;-91
2023/11/16 22:20:35;;;;;;;33.08;19.30;;;;;;;;;;10498986;28;20410;-90
2023/11/16 22:25:39;;;;;;;29.83;19.00;;;;;;;;;;10510541;28;20439;-91
2023/11/16 22:30:41;;;;;;;30.43;18.00;;;;;;;;;;10502708;28;20834;-90
2023/11/16 22:35:44;;;;;;;28.92;17.73;;;;;;;;;;10537143;28;20831;-91
2023/11/16 22:40:47;;;;;;;25.95;17.08;;;;;;;;;;10510966;28;20412;-90
2023/11/16 22:45:50;;;;;;;29.33;17.10;;;;;;;;;;10503916;28;20491;-90
2023/11/16 22:50:53;;;;;;;26.37;17.10;;;;;;;;;;10499652;28;20404;-90
2023/11/16 22:55:58;;;;;;;26.83;17.05;;;;;;;;;;10512069;28;20464;-91
2023/11/16 23:01:01;;;;;;;26.58;16.85;;;;;;;;;;10519727;28;20939;-89
2023/11/16 23:06:06;;;;;;;29.45;17.63;;;;;;;;;;10529510;28;21168;-89
2023/11/16 23:11:10;;;;;;;25.50;15.98;;;;;;;;;;10516028;28;20963;-87
2023/11/16 23:16:13;;;;;;;27.73;17.13;;;;;;;;;;10535112;28;20418;-90
2023/11/16 23:21:16;;;;;;;32.17;19.25;;;;;;;;;;10524159;28;20404;-91
2023/11/16 23:26:21;;;;;;;36.37;22.23;;;;;;;;;;10523573;28;20456;-90
2023/11/16 23:31:24;;;;;;;35.08;21.15;;;;;;;;;;10557769;28;20386;-91
2023/11/16 23:36:26;;;;;;;34.17;21.00;;;;;;;;;;10531172;28;20962;-90
2023/11/16 23:41:30;;;;;;;34.28;20.45;;;;;;;;;;10528852;28;20400;-90
2023/11/16 23:46:34;;;;;;;31.98;20.88;;;;;;;;;;10518621;28;20461;-91
2023/11/16 23:51:36;;;;;;;31.83;20.52;;;;;;;;;;10521805;28;20432;-90
2023/11/16 23:56:40;;;;;;;31.73;20.43;;;;;;;;;;10549140;28;20504;-90
